sensor_id;sensor_type;location;lat;lon;timestamp;P1;durP1;ratioP1;P2;durP2;ratioP2
25155;SDS011;21913;52.456;13.634;2022-12-11T00:02:33;14.88;;;9.27;;
25155;SDS011;21913;52.456;13.634;2022-12-11T00:07:35;15.90;;;9.90;;
25155;SDS011;21913;52.456;13.634;2022-12-11T00:12:37;14.73;;;10.23;;
25155;SDS011;21913;52.456;13.634;2022-12-11T00:17:38;15.30;;;10.30;;
25155;SDS011;21913;52.456;13.634;2022-12-11T00:22:40;17.05;;;10.88;;
25155;SDS011;21913;52.456;13.634;2022-12-11T00:27:44;16.67;;;11.07;;
25155;SDS011;21913;52.456;13.634;2022-12-11T00:32:46;19.33;;;11.27;;
25155;SDS011;21913;52.456;13.634;2022-12-11T00:37:47;21.13;;;11.05;;
25155;SDS011;21913;52.456;13.634;2022-12-11T00:42:49;18.23;;;10.80;;
25155;SDS011;21913;52.456;13.634;2022-12-11T00:47:50;22.20;;;12.57;;
25155;SDS011;21913;52.456;13.634;2022-12-11T00:52:52;19.15;;;11.23;;
25155;SDS011;21913;52.456;13.634;2022-12-11T00:57:54;18.55;;;11.95;;
25155;SDS011;21913;52.456;13.634;2022-12-11T01:02:56;25.25;;;11.82;;
25155;SDS011;21913;52.456;13.634;2022-12-11T01:07:58;18.75;;;12.30;;
25155;SDS011;21913;52.456;13.634;2022-12-11T01:13:03;16.55;;;11.30;;
25155;SDS011;21913;52.456;13.634;2022-12-11T01:18:06;20.08;;;11.77;;
25155;SDS011;21913;52.456;13.634;2022-12-11T01:23:09;22.40;;;12.55;;
25155;SDS011;21913;52.456;13.634;2022-12-11T01:28:12;21.17;;;12.80;;
25155;SDS011;21913;52.456;13.634;2022-12-11T01:33:13;23.88;;;13.38;;
25155;SDS011;21913;52.456;13.634;2022-12-11T01:38:15;21.80;;;12.90;;
25155;SDS011;21913;52.456;13.634;2022-12-11T01:43:17;22.52;;;13.40;;
25155;SDS011;21913;52.456;13.634;2022-12-11T01:48:20;20.25;;;13.05;;
25155;SDS011;21913;52.456;13.634;2022-12-11T01:53:26;21.63;;;13.43;;
25155;SDS011;21913;52.456;13.634;2022-12-11T01:58:34;23.08;;;13.68;;
25155;SDS011;21913;52.456;13.634;2022-12-11T02:03:41;23.88;;;13.55;;
25155;SDS011;21913;52.456;13.634;2022-12-11T02:08:42;24.02;;;13.93;;
25155;SDS011;21913;52.456;13.634;2022-12-11T02:19:07;24.10;;;14.07;;
25155;SDS011;21913;52.456;13.634;2022-12-11T02:29:23;24.63;;;13.60;;
25155;SDS011;21913;52.456;13.634;2022-12-11T02:34:45;21.10;;;13.40;;
25155;SDS011;21913;52.456;13.634;2022-12-11T02:39:54;24.02;;;13.20;;
25155;SDS011;21913;52.456;13.634;2022-12-11T02:44:57;24.70;;;14.15;;
25155;SDS011;21913;52.456;13.634;2022-12-11T02:50:01;22.02;;;13.65;;
25155;SDS011;21913;52.456;13.634;2022-12-11T02:55:07;25.05;;;14.05;;
25155;SDS011;21913;52.456;13.634;2022-12-11T03:00:13;21.95;;;13.38;;
25155;SDS011;21913;52.456;13.634;2022-12-11T03:05:15;21.95;;;13.48;;
25155;SDS011;21913;52.456;13.634;2022-12-11T03:10:17;22.02;;;14.27;;
25155;SDS011;21913;52.456;13.634;2022-12-11T03:15:20;24.08;;;13.98;;
25155;SDS011;21913;52.456;13.634;2022-12-11T03:20:34;25.67;;;14.43;;
25155;SDS011;21913;52.456;13.634;2022-12-11T03:25:52;25.42;;;14.32;;
25155;SDS011;21913;52.456;13.634;2022-12-11T03:30:56;25.20;;;14.75;;
25155;SDS011;21913;52.456;13.634;2022-12-11T03:36:24;27.02;;;15.02;;
25155;SDS011;21913;52.456;13.634;2022-12-11T03:41:27;25.58;;;14.02;;
25155;SDS011;21913;52.456;13.634;2022-12-11T03:46:35;21.27;;;13.85;;
25155;SDS011;21913;52.456;13.634;2022-12-11T03:51:39;27.30;;;15.00;;
25155;SDS011;21913;52.456;13.634;2022-12-11T03:56:41;25.23;;;14.52;;
25155;SDS011;21913;52.456;13.634;2022-12-11T04:01:45;25.65;;;15.27;;
25155;SDS011;21913;52.456;13.634;2022-12-11T04:06:46;24.38;;;14.50;;
25155;SDS011;21913;52.456;13.634;2022-12-11T04:11:48;24.58;;;14.80;;
25155;SDS011;21913;52.456;13.634;2022-12-11T04:16:49;28.38;;;14.30;;
25155;SDS011;21913;52.456;13.634;2022-12-11T04:21:51;25.58;;;14.05;;
25155;SDS011;21913;52.456;13.634;2022-12-11T04:26:52;27.60;;;14.13;;
25155;SDS011;21913;52.456;13.634;2022-12-11T04:31:54;27.63;;;15.00;;
25155;SDS011;21913;52.456;13.634;2022-12-11T04:36:56;23.17;;;14.18;;
25155;SDS011;21913;52.456;13.634;2022-12-11T04:41:58;24.58;;;14.07;;
25155;SDS011;21913;52.456;13.634;2022-12-11T04:46:59;22.58;;;13.57;;
25155;SDS011;21913;52.456;13.634;2022-12-11T04:52:01;22.63;;;13.60;;
25155;SDS011;21913;52.456;13.634;2022-12-11T04:57:02;22.00;;;12.93;;
25155;SDS011;21913;52.456;13.634;2022-12-11T05:02:04;24.65;;;14.27;;
25155;SDS011;21913;52.456;13.634;2022-12-11T05:07:06;23.98;;;14.55;;
25155;SDS011;21913;52.456;13.634;2022-12-11T05:12:07;22.75;;;13.65;;
25155;SDS011;21913;52.456;13.634;2022-12-11T05:17:09;23.55;;;13.23;;
25155;SDS011;21913;52.456;13.634;2022-12-11T05:22:10;23.48;;;13.25;;
25155;SDS011;21913;52.456;13.634;2022-12-11T05:27:12;24.25;;;13.13;;
25155;SDS011;21913;52.456;13.634;2022-12-11T05:32:13;23.95;;;13.45;;
25155;SDS011;21913;52.456;13.634;2022-12-11T05:37:15;22.33;;;13.32;;
25155;SDS011;21913;52.456;13.634;2022-12-11T05:42:16;19.88;;;12.45;;
25155;SDS011;21913;52.456;13.634;2022-12-11T05:47:18;22.80;;;12.52;;
25155;SDS011;21913;52.456;13.634;2022-12-11T05:52:19;23.27;;;12.98;;
25155;SDS011;21913;52.456;13.634;2022-12-11T05:57:20;20.80;;;12.82;;
25155;SDS011;21913;52.456;13.634;2022-12-11T06:02:22;19.25;;;11.93;;
25155;SDS011;21913;52.456;13.634;2022-12-11T06:07:23;22.90;;;12.82;;
25155;SDS011;21913;52.456;13.634;2022-12-11T06:12:25;22.90;;;12.68;;
25155;SDS011;21913;52.456;13.634;2022-12-11T06:17:26;23.40;;;13.10;;
25155;SDS011;21913;52.456;13.634;2022-12-11T06:22:28;21.88;;;12.60;;
25155;SDS011;21913;52.456;13.634;2022-12-11T06:27:30;22.35;;;13.02;;
25155;SDS011;21913;52.456;13.634;2022-12-11T06:32:32;22.38;;;12.63;;
25155;SDS011;21913;52.456;13.634;2022-12-11T06:37:33;25.60;;;13.02;;
25155;SDS011;21913;52.456;13.634;2022-12-11T06:42:36;23.63;;;12.40;;
25155;SDS011;21913;52.456;13.634;2022-12-11T06:47:37;18.77;;;11.63;;
25155;SDS011;21913;52.456;13.634;2022-12-11T06:52:39;23.13;;;12.57;;
25155;SDS011;21913;52.456;13.634;2022-12-11T06:57:40;25.35;;;13.10;;
25155;SDS011;21913;52.456;13.634;2022-12-11T07:02:42;21.52;;;12.90;;
25155;SDS011;21913;52.456;13.634;2022-12-11T07:07:43;23.50;;;12.63;;
25155;SDS011;21913;52.456;13.634;2022-12-11T07:12:45;21.67;;;12.50;;
25155;SDS011;21913;52.456;13.634;2022-12-11T07:17:46;21.92;;;13.13;;
25155;SDS011;21913;52.456;13.634;2022-12-11T07:22:48;22.90;;;13.48;;
25155;SDS011;21913;52.456;13.634;2022-12-11T07:27:49;19.75;;;12.45;;
25155;SDS011;21913;52.456;13.634;2022-12-11T07:32:51;21.80;;;12.55;;
25155;SDS011;21913;52.456;13.634;2022-12-11T07:37:52;22.90;;;13.10;;
25155;SDS011;21913;52.456;13.634;2022-12-11T07:42:54;24.20;;;13.02;;
25155;SDS011;21913;52.456;13.634;2022-12-11T07:47:56;22.70;;;13.25;;
25155;SDS011;21913;52.456;13.634;2022-12-11T07:52:58;25.10;;;12.38;;
25155;SDS011;21913;52.456;13.634;2022-12-11T07:57:59;22.40;;;12.68;;
25155;SDS011;21913;52.456;13.634;2022-12-11T08:03:01;20.15;;;12.65;;
25155;SDS011;21913;52.456;13.634;2022-12-11T08:08:02;22.33;;;12.88;;
25155;SDS011;21913;52.456;13.634;2022-12-11T08:13:04;23.33;;;12.65;;
25155;SDS011;21913;52.456;13.634;2022-12-11T08:18:05;23.38;;;13.63;;
25155;SDS011;21913;52.456;13.634;2022-12-11T08:23:07;22.58;;;12.63;;
25155;SDS011;21913;52.456;13.634;2022-12-11T08:28:08;22.45;;;13.10;;
25155;SDS011;21913;52.456;13.634;2022-12-11T08:33:10;24.13;;;12.68;;
25155;SDS011;21913;52.456;13.634;2022-12-11T08:38:11;23.25;;;12.82;;
25155;SDS011;21913;52.456;13.634;2022-12-11T08:43:13;23.58;;;12.40;;
25155;SDS011;21913;52.456;13.634;2022-12-11T08:48:14;22.70;;;12.95;;
25155;SDS011;21913;52.456;13.634;2022-12-11T08:53:17;23.75;;;13.50;;
25155;SDS011;21913;52.456;13.634;2022-12-11T08:58:18;20.38;;;11.88;;
25155;SDS011;21913;52.456;13.634;2022-12-11T09:03:20;20.42;;;12.18;;
25155;SDS011;21913;52.456;13.634;2022-12-11T09:08:21;19.85;;;11.90;;
25155;SDS011;21913;52.456;13.634;2022-12-11T09:13:23;21.55;;;12.57;;
25155;SDS011;21913;52.456;13.634;2022-12-11T09:18:24;21.95;;;12.63;;
25155;SDS011;21913;52.456;13.634;2022-12-11T09:23:26;21.65;;;12.30;;
25155;SDS011;21913;52.456;13.634;2022-12-11T09:28:27;19.00;;;11.43;;
25155;SDS011;21913;52.456;13.634;2022-12-11T09:33:28;22.55;;;12.10;;
25155;SDS011;21913;52.456;13.634;2022-12-11T09:38:30;20.23;;;12.02;;
25155;SDS011;21913;52.456;13.634;2022-12-11T09:43:40;21.80;;;12.63;;
25155;SDS011;21913;52.456;13.634;2022-12-11T09:48:47;27.33;;;12.80;;
25155;SDS011;21913;52.456;13.634;2022-12-11T09:53:49;23.60;;;11.88;;
25155;SDS011;21913;52.456;13.634;2022-12-11T10:09:58;21.58;;;12.02;;
25155;SDS011;21913;52.456;13.634;2022-12-11T10:20:44;20.10;;;11.57;;
25155;SDS011;21913;52.456;13.634;2022-12-11T10:25:50;20.27;;;11.88;;
25155;SDS011;21913;52.456;13.634;2022-12-11T10:31:09;19.27;;;11.52;;
25155;SDS011;21913;52.456;13.634;2022-12-11T10:36:24;21.77;;;12.00;;
25155;SDS011;21913;52.456;13.634;2022-12-11T10:41:34;18.83;;;11.20;;
25155;SDS011;21913;52.456;13.634;2022-12-11T10:46:37;21.27;;;11.82;;
25155;SDS011;21913;52.456;13.634;2022-12-11T10:51:39;20.60;;;11.63;;
25155;SDS011;21913;52.456;13.634;2022-12-11T10:56:40;20.90;;;11.95;;
25155;SDS011;21913;52.456;13.634;2022-12-11T11:01:46;19.83;;;11.60;;
25155;SDS011;21913;52.456;13.634;2022-12-11T11:06:59;18.60;;;10.88;;
25155;SDS011;21913;52.456;13.634;2022-12-11T11:12:02;21.30;;;12.07;;
25155;SDS011;21913;52.456;13.634;2022-12-11T11:17:14;20.90;;;12.15;;
25155;SDS011;21913;52.456;13.634;2022-12-11T11:22:17;23.13;;;11.65;;
25155;SDS011;21913;52.456;13.634;2022-12-11T11:32:31;21.20;;;11.35;;
25155;SDS011;21913;52.456;13.634;2022-12-11T11:37:37;18.38;;;11.73;;
25155;SDS011;21913;52.456;13.634;2022-12-11T11:42:49;18.30;;;10.98;;
25155;SDS011;21913;52.456;13.634;2022-12-11T11:48:03;21.20;;;10.95;;
25155;SDS011;21913;52.456;13.634;2022-12-11T11:53:13;19.42;;;11.60;;
25155;SDS011;21913;52.456;13.634;2022-12-11T11:58:21;21.20;;;11.70;;
25155;SDS011;21913;52.456;13.634;2022-12-11T12:03:27;22.23;;;11.60;;
25155;SDS011;21913;52.456;13.634;2022-12-11T12:30:03;19.83;;;10.90;;
25155;SDS011;21913;52.456;13.634;2022-12-11T12:35:39;18.13;;;11.07;;
25155;SDS011;21913;52.456;13.634;2022-12-11T12:51:46;18.33;;;11.32;;
25155;SDS011;21913;52.456;13.634;2022-12-11T12:56:50;22.33;;;11.70;;
25155;SDS011;21913;52.456;13.634;2022-12-11T13:01:55;19.73;;;11.40;;
25155;SDS011;21913;52.456;13.634;2022-12-11T13:07:09;20.27;;;11.60;;
25155;SDS011;21913;52.456;13.634;2022-12-11T13:12:14;22.92;;;11.50;;
25155;SDS011;21913;52.456;13.634;2022-12-11T13:22:21;19.83;;;11.73;;
25155;SDS011;21913;52.456;13.634;2022-12-11T13:27:26;19.13;;;11.65;;
25155;SDS011;21913;52.456;13.634;2022-12-11T13:32:37;20.65;;;11.27;;
25155;SDS011;21913;52.456;13.634;2022-12-11T13:37:39;18.20;;;10.85;;
25155;SDS011;21913;52.456;13.634;2022-12-11T13:42:47;19.05;;;11.32;;
25155;SDS011;21913;52.456;13.634;2022-12-11T13:48:03;19.42;;;12.27;;
25155;SDS011;21913;52.456;13.634;2022-12-11T13:53:17;19.70;;;11.75;;
25155;SDS011;21913;52.456;13.634;2022-12-11T13:58:21;20.10;;;12.15;;
25155;SDS011;21913;52.456;13.634;2022-12-11T14:03:23;19.60;;;11.98;;
25155;SDS011;21913;52.456;13.634;2022-12-11T14:08:26;21.98;;;11.68;;
25155;SDS011;21913;52.456;13.634;2022-12-11T14:13:36;18.27;;;11.40;;
25155;SDS011;21913;52.456;13.634;2022-12-11T14:18:40;21.30;;;13.05;;
25155;SDS011;21913;52.456;13.634;2022-12-11T14:23:49;18.98;;;11.52;;
25155;SDS011;21913;52.456;13.634;2022-12-11T14:28:52;19.83;;;11.88;;
25155;SDS011;21913;52.456;13.634;2022-12-11T14:33:55;20.02;;;12.13;;
25155;SDS011;21913;52.456;13.634;2022-12-11T14:39:46;23.10;;;11.63;;
25155;SDS011;21913;52.456;13.634;2022-12-11T14:44:31;19.85;;;12.07;;
25155;SDS011;21913;52.456;13.634;2022-12-11T14:49:44;18.77;;;11.00;;
25155;SDS011;21913;52.456;13.634;2022-12-11T14:54:49;20.50;;;11.40;;
25155;SDS011;21913;52.456;13.634;2022-12-11T14:59:54;18.77;;;11.55;;
25155;SDS011;21913;52.456;13.634;2022-12-11T15:10:23;18.85;;;11.43;;
25155;SDS011;21913;52.456;13.634;2022-12-11T15:15:27;19.17;;;11.10;;
25155;SDS011;21913;52.456;13.634;2022-12-11T15:20:33;20.75;;;10.98;;
25155;SDS011;21913;52.456;13.634;2022-12-11T15:25:34;19.35;;;11.23;;
25155;SDS011;21913;52.456;13.634;2022-12-11T15:30:36;16.90;;;11.13;;
25155;SDS011;21913;52.456;13.634;2022-12-11T15:35:38;19.65;;;11.20;;
25155;SDS011;21913;52.456;13.634;2022-12-11T15:40:40;19.77;;;11.13;;
25155;SDS011;21913;52.456;13.634;2022-12-11T15:45:42;19.90;;;11.85;;
25155;SDS011;21913;52.456;13.634;2022-12-11T15:50:43;17.98;;;11.43;;
25155;SDS011;21913;52.456;13.634;2022-12-11T15:55:45;19.20;;;10.85;;
25155;SDS011;21913;52.456;13.634;2022-12-11T16:00:47;17.80;;;10.45;;
25155;SDS011;21913;52.456;13.634;2022-12-11T16:05:49;18.50;;;10.43;;
25155;SDS011;21913;52.456;13.634;2022-12-11T16:10:52;18.35;;;10.93;;
25155;SDS011;21913;52.456;13.634;2022-12-11T16:15:54;20.50;;;10.98;;
25155;SDS011;21913;52.456;13.634;2022-12-11T16:20:56;18.42;;;11.07;;
25155;SDS011;21913;52.456;13.634;2022-12-11T16:25:58;17.73;;;10.43;;
25155;SDS011;21913;52.456;13.634;2022-12-11T16:31:00;17.75;;;10.13;;
25155;SDS011;21913;52.456;13.634;2022-12-11T16:36:10;15.85;;;9.82;;
25155;SDS011;21913;52.456;13.634;2022-12-11T16:41:13;17.27;;;10.98;;
25155;SDS011;21913;52.456;13.634;2022-12-11T16:46:17;14.65;;;9.70;;
25155;SDS011;21913;52.456;13.634;2022-12-11T16:51:19;16.15;;;10.55;;
25155;SDS011;21913;52.456;13.634;2022-12-11T16:56:21;19.33;;;11.00;;
25155;SDS011;21913;52.456;13.634;2022-12-11T17:01:22;15.82;;;9.77;;
25155;SDS011;21913;52.456;13.634;2022-12-11T17:06:24;16.20;;;10.35;;
25155;SDS011;21913;52.456;13.634;2022-12-11T17:11:26;16.15;;;9.65;;
25155;SDS011;21913;52.456;13.634;2022-12-11T17:16:28;15.57;;;10.50;;
25155;SDS011;21913;52.456;13.634;2022-12-11T17:21:29;19.17;;;10.38;;
25155;SDS011;21913;52.456;13.634;2022-12-11T17:26:31;16.15;;;10.43;;
25155;SDS011;21913;52.456;13.634;2022-12-11T17:31:32;15.43;;;9.60;;
25155;SDS011;21913;52.456;13.634;2022-12-11T17:36:34;15.98;;;10.13;;
25155;SDS011;21913;52.456;13.634;2022-12-11T17:41:36;17.00;;;10.15;;
25155;SDS011;21913;52.456;13.634;2022-12-11T17:46:38;17.67;;;10.02;;
25155;SDS011;21913;52.456;13.634;2022-12-11T17:51:39;19.10;;;11.27;;
25155;SDS011;21913;52.456;13.634;2022-12-11T17:56:41;15.25;;;10.65;;
25155;SDS011;21913;52.456;13.634;2022-12-11T18:01:42;16.73;;;9.82;;
25155;SDS011;21913;52.456;13.634;2022-12-11T18:06:44;16.52;;;10.02;;
25155;SDS011;21913;52.456;13.634;2022-12-11T18:11:45;15.45;;;10.20;;
25155;SDS011;21913;52.456;13.634;2022-12-11T18:16:46;17.13;;;10.23;;
25155;SDS011;21913;52.456;13.634;2022-12-11T18:21:48;15.70;;;10.10;;
25155;SDS011;21913;52.456;13.634;2022-12-11T18:26:49;16.27;;;10.52;;
25155;SDS011;21913;52.456;13.634;2022-12-11T18:31:51;19.48;;;11.00;;
25155;SDS011;21913;52.456;13.634;2022-12-11T18:36:52;19.42;;;10.30;;
25155;SDS011;21913;52.456;13.634;2022-12-11T18:41:55;16.92;;;9.80;;
25155;SDS011;21913;52.456;13.634;2022-12-11T18:47:10;16.90;;;10.30;;
25155;SDS011;21913;52.456;13.634;2022-12-11T18:52:11;15.70;;;9.65;;
25155;SDS011;21913;52.456;13.634;2022-12-11T18:57:13;19.10;;;10.88;;
25155;SDS011;21913;52.456;13.634;2022-12-11T19:02:14;16.70;;;10.05;;
25155;SDS011;21913;52.456;13.634;2022-12-11T19:07:16;18.38;;;10.27;;
25155;SDS011;21913;52.456;13.634;2022-12-11T19:12:17;15.85;;;10.35;;
25155;SDS011;21913;52.456;13.634;2022-12-11T19:17:19;18.00;;;10.85;;
25155;SDS011;21913;52.456;13.634;2022-12-11T19:22:20;18.38;;;10.80;;
25155;SDS011;21913;52.456;13.634;2022-12-11T19:27:22;17.75;;;10.70;;
25155;SDS011;21913;52.456;13.634;2022-12-11T19:32:24;16.83;;;10.85;;
25155;SDS011;21913;52.456;13.634;2022-12-11T19:37:26;17.20;;;10.15;;
25155;SDS011;21913;52.456;13.634;2022-12-11T19:42:27;18.65;;;11.25;;
25155;SDS011;21913;52.456;13.634;2022-12-11T19:47:29;18.40;;;11.50;;
25155;SDS011;21913;52.456;13.634;2022-12-11T19:52:30;15.43;;;10.45;;
25155;SDS011;21913;52.456;13.634;2022-12-11T19:57:32;16.73;;;10.93;;
25155;SDS011;21913;52.456;13.634;2022-12-11T20:02:34;17.30;;;10.85;;
25155;SDS011;21913;52.456;13.634;2022-12-11T20:07:35;16.77;;;11.13;;
25155;SDS011;21913;52.456;13.634;2022-12-11T20:12:37;16.25;;;10.30;;
25155;SDS011;21913;52.456;13.634;2022-12-11T20:17:38;16.60;;;10.80;;
25155;SDS011;21913;52.456;13.634;2022-12-11T20:22:40;16.80;;;11.18;;
25155;SDS011;21913;52.456;13.634;2022-12-11T20:27:41;19.52;;;11.00;;
25155;SDS011;21913;52.456;13.634;2022-12-11T20:32:43;17.98;;;10.60;;
25155;SDS011;21913;52.456;13.634;2022-12-11T20:37:44;17.70;;;11.25;;
25155;SDS011;21913;52.456;13.634;2022-12-11T20:42:46;17.05;;;11.63;;
25155;SDS011;21913;52.456;13.634;2022-12-11T20:47:48;17.30;;;11.43;;
25155;SDS011;21913;52.456;13.634;2022-12-11T20:52:49;18.15;;;11.18;;
25155;SDS011;21913;52.456;13.634;2022-12-11T20:57:53;19.42;;;11.88;;
25155;SDS011;21913;52.456;13.634;2022-12-11T21:02:54;19.00;;;11.57;;
25155;SDS011;21913;52.456;13.634;2022-12-11T21:07:56;18.98;;;11.25;;
25155;SDS011;21913;52.456;13.634;2022-12-11T21:12:58;16.13;;;10.15;;
25155;SDS011;21913;52.456;13.634;2022-12-11T21:17:59;18.10;;;11.85;;
25155;SDS011;21913;52.456;13.634;2022-12-11T21:23:01;19.35;;;11.07;;
25155;SDS011;21913;52.456;13.634;2022-12-11T21:28:03;18.65;;;11.60;;
25155;SDS011;21913;52.456;13.634;2022-12-11T21:33:05;16.65;;;10.70;;
25155;SDS011;21913;52.456;13.634;2022-12-11T21:38:06;18.85;;;11.25;;
25155;SDS011;21913;52.456;13.634;2022-12-11T21:43:08;19.75;;;11.07;;
25155;SDS011;21913;52.456;13.634;2022-12-11T21:48:09;16.77;;;10.88;;
25155;SDS011;21913;52.456;13.634;2022-12-11T21:53:11;16.30;;;11.20;;
25155;SDS011;21913;52.456;13.634;2022-12-11T21:58:12;17.33;;;10.95;;
25155;SDS011;21913;52.456;13.634;2022-12-11T22:03:14;19.33;;;10.60;;
25155;SDS011;21913;52.456;13.634;2022-12-11T22:08:16;21.98;;;12.15;;
25155;SDS011;21913;52.456;13.634;2022-12-11T22:13:17;16.92;;;11.25;;
25155;SDS011;21913;52.456;13.634;2022-12-11T22:18:19;18.00;;;11.55;;
25155;SDS011;21913;52.456;13.634;2022-12-11T22:23:22;20.20;;;12.15;;
25155;SDS011;21913;52.456;13.634;2022-12-11T22:28:23;17.35;;;10.93;;
25155;SDS011;21913;52.456;13.634;2022-12-11T22:33:25;21.08;;;11.45;;
25155;SDS011;21913;52.456;13.634;2022-12-11T22:38:26;17.40;;;10.85;;
25155;SDS011;21913;52.456;13.634;2022-12-11T22:43:28;17.95;;;10.80;;
25155;SDS011;21913;52.456;13.634;2022-12-11T22:48:29;18.00;;;11.30;;
25155;SDS011;21913;52.456;13.634;2022-12-11T22:53:31;16.20;;;10.73;;
25155;SDS011;21913;52.456;13.634;2022-12-11T22:58:33;18.05;;;11.63;;
25155;SDS011;21913;52.456;13.634;2022-12-11T23:03:34;18.52;;;11.10;;
25155;SDS011;21913;52.456;13.634;2022-12-11T23:08:36;18.55;;;11.07;;
25155;SDS011;21913;52.456;13.634;2022-12-11T23:13:38;18.48;;;11.20;;
25155;SDS011;21913;52.456;13.634;2022-12-11T23:18:41;18.27;;;11.45;;
25155;SDS011;21913;52.456;13.634;2022-12-11T23:23:43;17.88;;;11.13;;
25155;SDS011;21913;52.456;13.634;2022-12-11T23:28:45;18.58;;;10.65;;
25155;SDS011;21913;52.456;13.634;2022-12-11T23:33:47;18.65;;;11.52;;
25155;SDS011;21913;52.456;13.634;2022-12-11T23:38:48;18.80;;;11.40;;
25155;SDS011;21913;52.456;13.634;2022-12-11T23:43:54;17.50;;;10.80;;
25155;SDS011;21913;52.456;13.634;2022-12-11T23:48:55;18.45;;;11.95;;
25155;SDS011;21913;52.456;13.634;2022-12-11T23:53:57;17.02;;;11.35;;
25155;SDS011;21913;52.456;13.634;2022-12-11T23:58:58;19.05;;;11.13;;
